Huvudsida
METAR-TAF:

METAR-TAF

Flygplatser :

Luleå Airport

Luleå, Sverige

latitud: 65-33N, longitud: 022-08E, höjd: 17 m

Aktuellt väderrapport

Denna rapport gjordes för 27 minuter sedan, klockan 12:50 UTC
Vind 12 kt från syd
Temperatur 17°C
Fuktighet 88%
Tryck 1008 hPa
Sikt 10 km eller mer
Spridda moln på en höjd av 900 ft
Brutna moln på en höjd av 12000 ft

METAR: ESPA 171250Z 18012KT 9999 SCT009 BKN120 17/15 Q1008

Tid: 15:17 (13:17 UTC)

Väderprognos

Denna rapport gjordes för 1 timme och 47 minuter sedan, klockan 11:30 UTC
Prognos gäller från 17 kl. 12 UTC till 17 kl. 19 UTC
Vind 7 kt från syd
Sikt 10 km eller mer
Brutna moln på en höjd av 800 ft
Blir
från 17 kl. 12 UTC till 17 kl. 14 UTC
Brutna moln på en höjd av 3000 ft

TAF: ESPA 171130Z 1712/1719 18007KT 9999 BKN008 BECMG 1712/1714 BKN030

Aktuella väderrapporter och prognoser från 4000 flygplatser (METAR- och TAF-rapporter).

De tillgängliga stationerna syns som gula och röda prickar på kartan.

För musen över prickarna för att se namnen på stationerna.

Klicka sedan för att få väderrapporter och prognoser.

För att ändra kartan: Klicka på de gröna knapparna med ett svart kors på för att zooma in; den gröna knappen med ett streck på för att zooma ut; eller på de gröna pilarna för angränsande kartor.


METAR-TAF: